Time;durP1;ratioP1;P1;durP2;ratioP2;P2;SDS_P1;SDS_P2;PMS_P1;PMS_P2;Temp;Humidity;BMP_temperature;BMP_pressure;BME280_temperature;BME280_humidity;BME280_pressure;Samples;Min_cycle;Max_cycle;Signal;HPM_P1;HPM_P2
2022/10/21 00:00:17;;;;;;;16.50;11.83;;;15.10;99.90;;;;;;5072292;28;20670;-50
2022/10/21 00:02:44;;;;;;;17.37;10.57;;;15.20;99.90;;;;;;5085644;28;20220;-50
2022/10/21 00:05:11;;;;;;;16.93;11.03;;;15.30;99.90;;;;;;5092112;28;20666;-51
2022/10/21 00:07:40;;;;;;;14.90;10.63;;;15.30;99.90;;;;;;5080101;28;20706;-50
2022/10/21 00:10:08;;;;;;;18.33;9.50;;;15.30;99.90;;;;;;5080442;28;20193;-50
2022/10/21 00:12:36;;;;;;;14.83;11.27;;;15.40;99.90;;;;;;5079476;28;20721;-50
2022/10/21 00:15:04;;;;;;;14.87;11.13;;;15.40;99.90;;;;;;5083842;28;20199;-49
2022/10/21 00:17:31;;;;;;;21.97;11.00;;;15.40;99.90;;;;;;5083381;28;20918;-49
2022/10/21 00:19:57;;;;;;;13.03;11.13;;;15.40;99.90;;;;;;5080425;28;20239;-50
2022/10/21 00:22:25;;;;;;;17.07;9.93;;;15.40;99.90;;;;;;5076749;28;20232;-50
2022/10/21 00:24:53;;;;;;;12.40;10.57;;;15.30;99.90;;;;;;5079677;28;20220;-50
2022/10/21 00:27:20;;;;;;;16.00;10.53;;;15.30;99.90;;;;;;5071713;28;20274;-51
2022/10/21 00:29:47;;;;;;;12.90;9.87;;;15.20;99.90;;;;;;5071300;28;20282;-50
2022/10/21 00:32:14;;;;;;;19.17;11.77;;;15.20;99.90;;;;;;5085136;28;20196;-51
2022/10/21 00:34:42;;;;;;;16.30;12.07;;;15.10;99.90;;;;;;5082636;28;20193;-50
2022/10/21 00:37:09;;;;;;;13.97;12.23;;;15.10;99.90;;;;;;5071841;28;20197;-50
2022/10/21 00:39:36;;;;;;;17.63;13.53;;;15.10;99.90;;;;;;5071775;28;20741;-51
2022/10/21 00:42:05;;;;;;;18.00;13.13;;;15.00;99.90;;;;;;5071902;28;20278;-50
2022/10/21 00:44:32;;;;;;;19.43;12.80;;;14.90;99.90;;;;;;5072524;28;20243;-50
2022/10/21 00:47:02;;;;;;;15.87;12.80;;;14.90;99.90;;;;;;5089235;28;20341;-49
2022/10/21 00:49:37;;;;;;;21.33;13.60;;;14.80;99.90;;;;;;5082676;28;20193;-50
2022/10/21 00:52:08;;;;;;;16.60;12.27;;;14.70;99.90;;;;;;5071709;28;20670;-50
2022/10/21 00:54:37;;;;;;;17.70;13.83;;;14.80;99.90;;;;;;5071349;28;20205;-50
2022/10/21 00:57:07;;;;;;;19.17;13.47;;;14.90;99.90;;;;;;5074871;28;20675;-50
2022/10/21 00:59:38;;;;;;;26.70;16.43;;;14.90;99.90;;;;;;5083488;28;20250;-50
2022/10/21 01:02:06;;;;;;;22.00;17.47;;;14.90;99.90;;;;;;5080007;28;20193;-49
2022/10/21 01:04:33;;;;;;;23.93;16.57;;;14.90;99.90;;;;;;5071464;28;20235;-50
2022/10/21 01:07:01;;;;;;;24.23;18.00;;;14.90;99.90;;;;;;5071561;28;20221;-50
2022/10/21 01:09:29;;;;;;;20.97;16.80;;;14.80;99.90;;;;;;5078203;28;20196;-50
2022/10/21 01:11:57;;;;;;;21.23;17.67;;;14.80;99.90;;;;;;5080550;28;20201;-50
2022/10/21 01:14:46;;;;;;;22.00;16.73;;;14.80;99.90;;;;;;5071846;28;20270;-50
2022/10/21 01:17:40;;;;;;;22.43;17.20;;;14.80;99.90;;;;;;5085051;28;20288;-50
2022/10/21 01:20:29;;;;;;;27.50;17.90;;;14.70;99.90;;;;;;5092040;28;20261;-50
2022/10/21 01:23:27;;;;;;;24.03;18.90;;;14.70;99.90;;;;;;5082649;28;20320;-50
2022/10/21 01:26:28;;;;;;;22.10;17.03;;;14.60;99.90;;;;;;5087877;28;20257;-50
2022/10/21 01:29:10;;;;;;;21.33;17.77;;;14.60;99.90;;;;;;5074502;28;20282;-50
2022/10/21 01:31:42;;;;;;;26.77;18.30;;;14.60;99.90;;;;;;5086978;28;20272;-50
2022/10/21 01:34:14;;;;;;;26.90;19.97;;;14.70;99.90;;;;;;5077192;28;20212;-50
2022/10/21 01:36:50;;;;;;;24.03;18.17;;;14.70;99.90;;;;;;5084213;28;20615;-50
2022/10/21 01:39:23;;;;;;;26.70;19.33;;;14.70;99.90;;;;;;5095550;28;20257;-50
2022/10/21 01:41:57;;;;;;;29.93;19.03;;;14.70;99.90;;;;;;5095658;28;20209;-50
2022/10/21 01:44:29;;;;;;;25.40;19.63;;;14.60;99.90;;;;;;5085777;28;20734;-50
2022/10/21 01:47:01;;;;;;;24.37;18.70;;;14.60;99.90;;;;;;5080617;28;20201;-50
2022/10/21 01:49:32;;;;;;;24.90;19.03;;;14.50;99.90;;;;;;5082382;28;20265;-50
2022/10/21 01:52:00;;;;;;;23.40;18.60;;;14.40;99.90;;;;;;5095416;28;20204;-50
2022/10/21 01:54:31;;;;;;;24.20;18.43;;;14.40;99.90;;;;;;5093851;28;20312;-52
2022/10/21 01:57:01;;;;;;;26.90;19.23;;;14.30;99.90;;;;;;5075202;28;20255;-50
2022/10/21 01:59:31;;;;;;;31.00;19.00;;;14.30;99.90;;;;;;5076973;28;20193;-51
2022/10/21 02:02:02;;;;;;;21.67;18.30;;;14.30;99.90;;;;;;5082149;28;20197;-50
2022/10/21 02:04:32;;;;;;;23.77;18.90;;;14.20;99.90;;;;;;5082873;28;20223;-50
2022/10/21 02:06:59;;;;;;;25.13;19.03;;;14.30;99.90;;;;;;5074676;28;20246;-50
2022/10/21 02:09:26;;;;;;;24.73;19.07;;;14.30;99.90;;;;;;5085736;28;20200;-50
2022/10/21 02:11:57;;;;;;;29.63;20.53;;;14.30;99.90;;;;;;5083183;28;20254;-50
2022/10/21 02:14:28;;;;;;;22.27;19.10;;;14.30;99.90;;;;;;5089508;28;20273;-50
2022/10/21 02:16:55;;;;;;;25.30;19.13;;;14.20;99.90;;;;;;5094935;28;20208;-50
2022/10/21 02:19:24;;;;;;;26.43;19.80;;;14.20;99.90;;;;;;5094743;28;20719;-50
2022/10/21 02:21:53;;;;;;;29.70;20.53;;;14.20;99.90;;;;;;5093546;28;20299;-50
2022/10/21 02:24:25;;;;;;;27.00;20.43;;;14.20;99.90;;;;;;5085597;28;20216;-50
2022/10/21 02:26:52;;;;;;;26.17;19.63;;;14.30;99.90;;;;;;5092335;28;20196;-50
2022/10/21 02:29:22;;;;;;;33.83;21.10;;;14.40;99.90;;;;;;5074357;28;20204;-50
2022/10/21 02:31:58;;;;;;;28.93;20.47;;;14.50;99.90;;;;;;5073265;28;20197;-50
2022/10/21 02:34:35;;;;;;;27.50;20.13;;;14.60;99.90;;;;;;5073982;28;20714;-50
2022/10/21 02:37:13;;;;;;;26.20;19.70;;;14.60;99.90;;;;;;5083325;28;20662;-50
2022/10/21 02:39:47;;;;;;;25.93;19.77;;;14.60;99.90;;;;;;5085515;28;20194;-50
2022/10/21 02:42:21;;;;;;;27.60;20.53;;;14.50;99.90;;;;;;5074082;28;20201;-50
2022/10/21 02:44:48;;;;;;;22.50;18.37;;;14.50;99.90;;;;;;5073865;28;20201;-50
2022/10/21 02:47:15;;;;;;;28.47;19.87;;;14.50;99.90;;;;;;5073827;28;20205;-50
2022/10/21 02:49:45;;;;;;;37.67;21.53;;;14.50;99.90;;;;;;5082346;28;20201;-50
2022/10/21 02:52:12;;;;;;;25.77;20.90;;;14.50;99.90;;;;;;5087744;28;20201;-50
2022/10/21 02:54:39;;;;;;;28.40;20.43;;;14.50;99.90;;;;;;5082487;28;20188;-50
2022/10/21 02:57:06;;;;;;;25.50;19.80;;;14.60;99.90;;;;;;5094053;28;20201;-51
2022/10/21 02:59:33;;;;;;;23.93;19.67;;;14.60;99.90;;;;;;5094017;28;20204;-50
2022/10/21 03:02:00;;;;;;;31.20;22.33;;;14.60;99.90;;;;;;5080411;28;20688;-50
2022/10/21 03:04:27;;;;;;;32.30;22.33;;;14.60;99.90;;;;;;5089030;28;20216;-50
2022/10/21 03:06:55;;;;;;;32.90;24.00;;;14.60;99.90;;;;;;5093979;28;20265;-50
2022/10/21 03:09:23;;;;;;;33.90;23.90;;;14.60;99.90;;;;;;5086104;28;20213;-50
2022/10/21 03:11:49;;;;;;;30.27;23.10;;;14.60;99.90;;;;;;5083681;28;20193;-50
2022/10/21 03:14:16;;;;;;;32.20;21.43;;;14.60;99.90;;;;;;5086127;28;20624;-50
2022/10/21 03:16:43;;;;;;;38.43;24.33;;;14.50;99.90;;;;;;5082705;28;20628;-50
2022/10/21 03:19:11;;;;;;;33.27;23.97;;;14.50;99.90;;;;;;5093940;28;20201;-50
2022/10/21 03:21:38;;;;;;;32.20;24.77;;;14.50;99.90;;;;;;5093377;28;20238;-50
2022/10/21 03:24:06;;;;;;;37.40;23.87;;;14.40;99.90;;;;;;5086786;28;20692;-51
2022/10/21 03:26:33;;;;;;;31.30;23.97;;;14.40;99.90;;;;;;5077052;28;20201;-50
2022/10/21 03:29:00;;;;;;;38.03;24.13;;;14.40;99.90;;;;;;5084618;28;20212;-50
2022/10/21 03:31:27;;;;;;;34.60;24.33;;;14.30;99.90;;;;;;5093579;28;20254;-50
2022/10/21 03:33:54;;;;;;;35.00;25.20;;;14.40;99.90;;;;;;5088729;28;20273;-50
2022/10/21 03:36:21;;;;;;;33.87;23.30;;;14.40;99.90;;;;;;5079114;28;20241;-50
2022/10/21 03:38:48;;;;;;;36.57;24.87;;;14.40;99.90;;;;;;5089918;28;20200;-50
2022/10/21 03:41:16;;;;;;;35.00;24.33;;;14.40;99.90;;;;;;5077248;28;20193;-50
2022/10/21 03:43:43;;;;;;;31.87;22.77;;;14.50;99.90;;;;;;5075678;28;20225;-50
2022/10/21 03:46:10;;;;;;;35.53;24.30;;;14.50;99.90;;;;;;5093302;28;20560;-50
2022/10/21 03:48:37;;;;;;;37.37;25.97;;;14.50;99.90;;;;;;5093165;28;20273;-50
2022/10/21 03:51:04;;;;;;;39.77;24.03;;;14.40;99.90;;;;;;5087627;28;20251;-50
2022/10/21 03:53:31;;;;;;;35.13;24.00;;;14.40;99.90;;;;;;5080697;28;20221;-50
2022/10/21 03:55:58;;;;;;;32.87;25.83;;;14.40;99.90;;;;;;5072562;28;20197;-50
2022/10/21 03:58:27;;;;;;;33.67;24.40;;;14.30;99.90;;;;;;5073978;28;20205;-50
2022/10/21 04:00:55;;;;;;;37.73;23.10;;;14.30;99.90;;;;;;5081582;28;20650;-50
2022/10/21 04:03:22;;;;;;;30.53;22.37;;;14.30;99.90;;;;;;5078199;28;20224;-50
2022/10/21 04:05:49;;;;;;;32.93;24.40;;;14.20;99.90;;;;;;5075767;28;20208;-51
2022/10/21 04:08:16;;;;;;;31.50;22.63;;;14.20;99.90;;;;;;5092559;28;20257;-50
2022/10/21 04:10:45;;;;;;;28.37;21.70;;;14.20;99.90;;;;;;5092569;28;20200;-50
2022/10/21 04:13:12;;;;;;;35.70;24.20;;;14.20;99.90;;;;;;5092471;28;20255;-50
2022/10/21 04:15:40;;;;;;;34.27;24.37;;;14.20;99.90;;;;;;5086054;28;20605;-50
2022/10/21 04:18:07;;;;;;;30.27;23.43;;;14.20;99.90;;;;;;5081648;28;20189;-51
2022/10/21 04:20:34;;;;;;;34.23;24.33;;;14.20;99.90;;;;;;5072454;28;20691;-52
2022/10/21 04:23:02;;;;;;;28.97;22.77;;;14.10;99.90;;;;;;5090949;28;20231;-50
2022/10/21 04:25:29;;;;;;;35.67;23.53;;;14.10;99.90;;;;;;5091110;28;20195;-50
2022/10/21 04:27:56;;;;;;;34.00;23.07;;;14.10;99.90;;;;;;5091175;28;20615;-50
2022/10/21 04:30:23;;;;;;;36.90;23.80;;;14.20;99.90;;;;;;5091149;28;20608;-50
2022/10/21 04:32:51;;;;;;;39.50;23.20;;;14.20;99.90;;;;;;5080772;28;20220;-50
2022/10/21 04:35:18;;;;;;;38.23;24.73;;;14.20;99.90;;;;;;5085120;28;20192;-51
2022/10/21 04:37:46;;;;;;;35.77;23.50;;;14.20;99.90;;;;;;5090782;28;20197;-50
2022/10/21 04:40:13;;;;;;;31.20;22.83;;;14.20;99.90;;;;;;5088727;28;20259;-50
2022/10/21 04:42:40;;;;;;;35.63;22.60;;;14.20;99.90;;;;;;5083312;28;20213;-50
2022/10/21 04:45:08;;;;;;;32.63;21.57;;;14.20;99.90;;;;;;5090563;28;20310;-51
2022/10/21 04:47:38;;;;;;;27.87;22.67;;;14.20;99.90;;;;;;5081693;28;20204;-50
2022/10/21 04:50:07;;;;;;;30.70;22.87;;;14.20;99.90;;;;;;5079178;28;20249;-52
2022/10/21 04:52:34;;;;;;;36.93;23.10;;;14.20;99.90;;;;;;5082520;28;20277;-50
2022/10/21 04:55:01;;;;;;;34.70;25.07;;;14.20;99.90;;;;;;5089737;28;20208;-50
2022/10/21 04:57:28;;;;;;;35.60;25.20;;;14.20;99.90;;;;;;5090426;28;20191;-50
2022/10/21 04:59:55;;;;;;;36.17;25.30;;;14.20;99.90;;;;;;5077835;28;20204;-50
2022/10/21 05:02:23;;;;;;;36.37;25.03;;;14.30;99.90;;;;;;5071661;28;20200;-50
2022/10/21 05:04:50;;;;;;;36.07;23.57;;;14.30;99.90;;;;;;5073937;28;20205;-50
2022/10/21 05:07:18;;;;;;;30.23;22.27;;;14.30;99.90;;;;;;5080328;28;20224;-50
2022/10/21 05:09:45;;;;;;;31.87;23.83;;;14.40;99.90;;;;;;5072907;28;20224;-50
2022/10/21 05:12:13;;;;;;;36.00;24.40;;;14.40;99.90;;;;;;5090458;28;20196;-50
2022/10/21 05:14:40;;;;;;;32.00;24.03;;;14.30;99.90;;;;;;5071290;28;20216;-50
2022/10/21 05:17:07;;;;;;;33.80;22.63;;;14.30;99.90;;;;;;5071455;28;20694;-50
2022/10/21 05:19:34;;;;;;;31.80;22.70;;;14.30;99.90;;;;;;5076492;28;20197;-50
2022/10/21 05:22:01;;;;;;;32.43;22.97;;;14.30;99.90;;;;;;5078997;28;20197;-51
2022/10/21 05:24:30;;;;;;;37.50;22.50;;;14.20;99.90;;;;;;5075144;28;20652;-50
2022/10/21 05:26:57;;;;;;;31.80;22.40;;;14.10;99.90;;;;;;5076632;28;20401;-50
2022/10/21 05:29:24;;;;;;;36.90;23.63;;;14.10;99.90;;;;;;5071402;28;20278;-50
2022/10/21 05:31:51;;;;;;;29.30;21.63;;;14.10;99.90;;;;;;5071277;28;20193;-50
2022/10/21 05:34:18;;;;;;;30.27;20.27;;;14.00;99.90;;;;;;5082885;28;20221;-51
2022/10/21 05:36:47;;;;;;;28.33;21.73;;;14.00;99.90;;;;;;5078486;28;20241;-50
2022/10/21 05:39:14;;;;;;;31.70;24.50;;;13.90;99.90;;;;;;5084139;28;20201;-50
2022/10/21 05:41:43;;;;;;;30.47;23.83;;;13.90;99.90;;;;;;5074126;28;20197;-52
2022/10/21 05:44:10;;;;;;;30.50;21.60;;;13.90;99.90;;;;;;5082305;28;20694;-50
2022/10/21 05:46:37;;;;;;;30.97;23.03;;;13.90;99.90;;;;;;5071159;28;20242;-50
2022/10/21 05:49:05;;;;;;;32.03;21.73;;;13.90;99.90;;;;;;5077601;28;20216;-50
2022/10/21 05:51:32;;;;;;;30.53;21.80;;;13.90;99.90;;;;;;5074330;28;20299;-50
2022/10/21 05:54:01;;;;;;;29.90;21.83;;;13.80;99.90;;;;;;5071863;28;20694;-50
2022/10/21 05:56:28;;;;;;;29.13;22.47;;;13.80;99.90;;;;;;5071838;28;20189;-51
2022/10/21 05:58:57;;;;;;;32.17;23.40;;;13.80;99.90;;;;;;5073720;28;20630;-50
2022/10/21 06:01:24;;;;;;;28.17;21.60;;;13.80;99.90;;;;;;5076450;28;20202;-51
2022/10/21 06:03:51;;;;;;;28.17;21.90;;;13.80;99.90;;;;;;5079812;28;20300;-50
2022/10/21 06:06:18;;;;;;;32.23;23.23;;;13.80;99.90;;;;;;5083538;28;20264;-50
2022/10/21 06:08:48;;;;;;;30.47;22.90;;;13.80;99.90;;;;;;5087856;28;20284;-50
2022/10/21 06:11:17;;;;;;;26.87;22.00;;;13.90;99.90;;;;;;5075256;28;20780;-51
2022/10/21 06:13:45;;;;;;;27.80;20.27;;;13.90;99.90;;;;;;5075708;28;20229;-50
2022/10/21 06:16:14;;;;;;;31.93;23.20;;;13.90;99.90;;;;;;5093895;28;20732;-49
2022/10/21 06:18:45;;;;;;;31.23;22.67;;;13.90;99.90;;;;;;5079938;28;20189;-50
2022/10/21 06:21:12;;;;;;;29.80;21.37;;;14.00;99.90;;;;;;5081039;28;20202;-50
2022/10/21 06:23:39;;;;;;;26.43;21.27;;;14.00;99.90;;;;;;5075469;28;20241;-50
2022/10/21 06:26:08;;;;;;;31.83;21.87;;;13.90;99.90;;;;;;5074027;28;20193;-51
2022/10/21 06:28:37;;;;;;;31.77;25.03;;;13.90;99.90;;;;;;5074211;28;20213;-50
2022/10/21 06:31:05;;;;;;;37.00;25.43;;;13.90;99.90;;;;;;5077121;28;20329;-50
2022/10/21 06:33:33;;;;;;;29.23;22.33;;;14.00;99.90;;;;;;5085177;28;20741;-54
2022/10/21 06:36:00;;;;;;;32.00;21.47;;;14.00;99.90;;;;;;5084309;28;20205;-50
2022/10/21 06:38:27;;;;;;;38.20;21.80;;;14.00;99.90;;;;;;5074118;28;20254;-50
2022/10/21 06:41:01;;;;;;;26.50;20.77;;;14.00;99.90;;;;;;5078452;28;20200;-50
2022/10/21 06:43:29;;;;;;;29.37;20.77;;;14.00;99.90;;;;;;5073022;28;20217;-51
2022/10/21 06:46:00;;;;;;;30.20;21.47;;;14.00;99.90;;;;;;5077559;28;21593;-50
2022/10/21 06:48:28;;;;;;;35.03;23.13;;;14.00;99.90;;;;;;5082679;28;20320;-50
2022/10/21 06:51:02;;;;;;;28.20;19.93;;;14.10;99.90;;;;;;5081182;28;20227;-51
2022/10/21 06:53:29;;;;;;;29.30;19.93;;;14.10;99.90;;;;;;5081927;28;20275;-50
2022/10/21 06:56:04;;;;;;;33.03;21.00;;;14.10;99.90;;;;;;5073023;28;20255;-50
2022/10/21 06:58:32;;;;;;;25.03;20.27;;;14.10;99.90;;;;;;5073457;28;20200;-50
2022/10/21 07:00:59;;;;;;;28.33;19.63;;;14.10;99.90;;;;;;5084505;28;20254;-50
2022/10/21 07:03:26;;;;;;;23.80;19.40;;;14.10;99.90;;;;;;5087150;28;20221;-51
2022/10/21 07:06:00;;;;;;;27.37;20.30;;;14.20;99.90;;;;;;5081179;28;20259;-51
2022/10/21 07:08:27;;;;;;;28.77;20.50;;;14.20;99.90;;;;;;5081079;28;20606;-49
2022/10/21 07:10:55;;;;;;;31.03;21.53;;;14.30;99.90;;;;;;5072881;28;20255;-50
2022/10/21 07:13:22;;;;;;;32.77;22.77;;;14.30;99.90;;;;;;5072065;28;20213;-50
2022/10/21 07:15:57;;;;;;;30.17;23.50;;;14.30;99.90;;;;;;5080590;28;20259;-49
2022/10/21 07:18:24;;;;;;;30.07;23.00;;;14.30;99.90;;;;;;5077706;28;20267;-50
2022/10/21 07:20:51;;;;;;;30.93;23.03;;;14.40;99.90;;;;;;5082719;28;20242;-50
2022/10/21 07:23:19;;;;;;;36.80;24.13;;;14.40;99.90;;;;;;5072805;28;20237;-50
2022/10/21 07:25:46;;;;;;;32.20;22.87;;;14.40;99.90;;;;;;5080718;28;20570;-51
2022/10/21 07:28:13;;;;;;;30.23;22.40;;;14.40;99.90;;;;;;5086096;28;20557;-50
2022/10/21 07:30:41;;;;;;;34.10;24.50;;;14.50;99.90;;;;;;5081468;28;20219;-51
2022/10/21 07:33:08;;;;;;;31.67;22.93;;;14.50;99.90;;;;;;5086061;28;20232;-50
2022/10/21 07:35:35;;;;;;;32.97;22.87;;;14.50;99.90;;;;;;5078165;28;20193;-50
2022/10/21 07:38:03;;;;;;;31.33;21.90;;;14.60;99.90;;;;;;5083296;28;20204;-51
2022/10/21 07:40:31;;;;;;;34.87;23.47;;;14.70;99.90;;;;;;5092861;28;20593;-50
2022/10/21 07:42:59;;;;;;;29.90;23.10;;;14.60;99.90;;;;;;5086971;28;20288;-50
2022/10/21 07:45:25;;;;;;;34.80;23.47;;;14.50;99.90;;;;;;5090554;28;20742;-51
2022/10/21 07:47:52;;;;;;;28.10;19.33;;;14.50;99.90;;;;;;5084351;28;20727;-51
2022/10/21 07:50:19;;;;;;;26.03;20.47;;;14.60;99.90;;;;;;5092800;28;20212;-51
2022/10/21 07:52:46;;;;;;;35.60;21.60;;;14.60;99.90;;;;;;5092999;28;20228;-51
2022/10/21 07:55:15;;;;;;;27.87;21.30;;;14.60;99.90;;;;;;5092780;28;20250;-51
2022/10/21 07:57:44;;;;;;;33.90;21.63;;;14.60;99.90;;;;;;5090585;28;20257;-50
2022/10/21 08:00:12;;;;;;;31.77;22.97;;;14.60;99.90;;;;;;5077065;28;20188;-51
2022/10/21 08:02:39;;;;;;;30.73;22.27;;;14.70;99.90;;;;;;5092526;28;20635;-51
2022/10/21 08:05:07;;;;;;;35.03;22.80;;;14.70;99.90;;;;;;5092373;28;20285;-51
2022/10/21 08:07:34;;;;;;;39.60;23.70;;;14.70;99.90;;;;;;5092816;28;20204;-51
2022/10/21 08:10:01;;;;;;;31.23;22.23;;;14.70;99.90;;;;;;5092392;28;20281;-51
2022/10/21 08:12:28;;;;;;;28.90;21.67;;;14.70;99.90;;;;;;5091358;28;20224;-51
2022/10/21 08:14:57;;;;;;;34.50;21.60;;;14.70;99.90;;;;;;5082543;28;20728;-51
2022/10/21 08:17:24;;;;;;;32.67;21.53;;;14.70;99.90;;;;;;5077136;28;20208;-50
2022/10/21 08:19:51;;;;;;;25.63;22.23;;;14.70;99.90;;;;;;5071937;28;20200;-51
2022/10/21 08:22:17;;;;;;;38.33;23.83;;;14.80;99.90;;;;;;5071755;28;20682;-51
2022/10/21 08:24:44;;;;;;;31.70;22.80;;;14.80;99.90;;;;;;5071705;28;20552;-50
2022/10/21 08:27:11;;;;;;;32.13;21.27;;;14.80;99.90;;;;;;5075935;28;20654;-51
2022/10/21 08:29:38;;;;;;;31.30;21.60;;;14.80;99.90;;;;;;5079384;28;20221;-51
2022/10/21 08:32:07;;;;;;;29.90;21.03;;;14.80;99.90;;;;;;5071958;28;20208;-50
2022/10/21 08:34:34;;;;;;;32.90;22.00;;;14.80;99.90;;;;;;5071548;28;20201;-51
2022/10/21 08:37:01;;;;;;;27.43;20.17;;;14.80;99.90;;;;;;5072029;28;20254;-51
2022/10/21 08:39:28;;;;;;;35.57;22.73;;;14.80;99.90;;;;;;5072077;28;20201;-50
2022/10/21 08:42:14;;;;;;;26.57;20.20;;;14.80;99.90;;;;;;5074870;28;20258;-51
2022/10/21 08:44:49;;;;;;;31.97;21.33;;;14.80;99.90;;;;;;5073728;28;20205;-51
2022/10/21 08:47:29;;;;;;;25.40;20.13;;;14.90;99.90;;;;;;5071699;28;20262;-53
2022/10/21 08:50:00;;;;;;;33.13;20.63;;;14.70;99.90;;;;;;5071602;28;20632;-51
2022/10/21 08:52:37;;;;;;;24.67;18.70;;;14.80;99.90;;;;;;5071575;28;20560;-51
2022/10/21 08:55:07;;;;;;;28.07;20.40;;;14.70;99.90;;;;;;5071857;28;20666;-51
2022/10/21 08:57:35;;;;;;;24.17;17.43;;;14.60;99.90;;;;;;5079795;28;20193;-51
2022/10/21 09:00:06;;;;;;;31.27;20.17;;;14.60;99.90;;;;;;5076190;28;20196;-50
2022/10/21 09:02:47;;;;;;;22.87;18.97;;;14.60;99.90;;;;;;5091358;28;20225;-51
2022/10/21 09:05:37;;;;;;;26.97;20.20;;;14.60;99.90;;;;;;5091320;28;20212;-51
2022/10/21 09:08:15;;;;;;;31.97;21.50;;;14.70;99.90;;;;;;5090585;28;20596;-50
2022/10/21 09:10:57;;;;;;;29.43;20.83;;;14.80;99.90;;;;;;5075987;28;20224;-50
2022/10/21 09:13:48;;;;;;;32.37;22.10;;;14.90;99.90;;;;;;5076013;28;20786;-50
2022/10/21 09:16:21;;;;;;;23.50;19.93;;;14.90;99.90;;;;;;5071425;28;20601;-50
2022/10/21 09:19:04;;;;;;;32.03;21.07;;;15.00;99.90;;;;;;5076860;28;20192;-50
2022/10/21 09:21:44;;;;;;;31.67;21.30;;;15.00;99.90;;;;;;5077722;28;20201;-51
2022/10/21 09:24:18;;;;;;;36.07;25.47;;;14.90;99.90;;;;;;5075643;28;20216;-51
2022/10/21 09:26:48;;;;;;;39.57;26.80;;;14.90;99.90;;;;;;5091115;28;20197;-51
2022/10/21 09:29:27;;;;;;;34.13;23.80;;;14.90;99.90;;;;;;5089587;28;20246;-51
2022/10/21 09:31:59;;;;;;;37.07;23.73;;;14.80;99.90;;;;;;5074961;28;20670;-50
2022/10/21 09:34:38;;;;;;;28.80;21.30;;;14.90;99.90;;;;;;5074823;28;20282;-51
2022/10/21 09:37:11;;;;;;;37.50;24.73;;;14.90;99.90;;;;;;5078955;28;20250;-51
2022/10/21 09:39:42;;;;;;;32.13;23.33;;;14.90;99.90;;;;;;5084390;28;20253;-51
2022/10/21 09:42:12;;;;;;;30.03;21.77;;;14.90;99.90;;;;;;5080089;28;20318;-50
2022/10/21 09:44:40;;;;;;;33.90;24.23;;;15.00;99.90;;;;;;5081990;28;20208;-51
2022/10/21 09:47:18;;;;;;;32.53;20.93;;;15.00;99.90;;;;;;5084621;28;20203;-51
2022/10/21 09:49:50;;;;;;;30.43;20.80;;;15.00;99.90;;;;;;5087061;28;20216;-50
2022/10/21 09:52:20;;;;;;;33.57;21.20;;;15.00;99.90;;;;;;5086330;28;20200;-51
2022/10/21 09:54:48;;;;;;;29.87;19.60;;;15.10;99.90;;;;;;5086031;28;20200;-50
2022/10/21 09:57:20;;;;;;;30.07;19.07;;;15.10;99.90;;;;;;5088548;28;20208;-51
2022/10/21 09:59:52;;;;;;;25.50;18.53;;;15.20;99.90;;;;;;5082362;28;20205;-50
2022/10/21 10:02:26;;;;;;;17.23;15.43;;;15.30;99.90;;;;;;5084470;28;20253;-51
2022/10/21 10:04:55;;;;;;;18.40;13.43;;;15.30;99.90;;;;;;5084242;28;20200;-50
2022/10/21 10:07:35;;;;;;;14.83;11.67;;;15.40;99.90;;;;;;5082459;28;20208;-51
2022/10/21 10:10:24;;;;;;;11.27;10.13;;;15.40;99.90;;;;;;5077235;28;20213;-51
2022/10/21 10:12:57;;;;;;;17.03;10.30;;;15.60;99.90;;;;;;5077507;28;20225;-51
2022/10/21 10:15:33;;;;;;;13.60;10.27;;;15.70;99.90;;;;;;5081883;28;20205;-50
2022/10/21 10:18:01;;;;;;;16.27;12.90;;;15.70;99.90;;;;;;5088478;28;20208;-51
2022/10/21 10:20:29;;;;;;;19.60;12.13;;;15.80;99.90;;;;;;5091203;28;20635;-50
2022/10/21 10:23:18;;;;;;;17.07;12.80;;;15.90;99.90;;;;;;5073372;28;20229;-50
2022/10/21 10:25:51;;;;;;;13.67;10.70;;;16.00;99.90;;;;;;5074252;28;20277;-51
2022/10/21 10:28:25;;;;;;;11.90;10.70;;;16.10;99.90;;;;;;5082990;28;20204;-51
2022/10/21 10:30:55;;;;;;;11.60;9.70;;;16.10;99.90;;;;;;5083386;28;20301;-51
2022/10/21 10:33:27;;;;;;;11.37;10.13;;;16.10;99.90;;;;;;5081928;28;20216;-51
2022/10/21 10:35:58;;;;;;;10.87;8.93;;;16.20;99.90;;;;;;5080984;28;20568;-51
2022/10/21 10:38:29;;;;;;;16.40;8.93;;;16.20;99.90;;;;;;5082798;28;20209;-50
2022/10/21 10:41:04;;;;;;;15.17;10.73;;;16.20;99.90;;;;;;5081827;28;20197;-50
2022/10/21 10:43:33;;;;;;;10.50;8.90;;;16.20;99.90;;;;;;5086388;28;20221;-50
2022/10/21 10:46:03;;;;;;;10.37;9.27;;;16.20;99.90;;;;;;5081046;28;20577;-51
2022/10/21 10:48:37;;;;;;;11.80;8.37;;;16.20;99.90;;;;;;5079755;28;20297;-50
2022/10/21 10:51:08;;;;;;;12.17;7.93;;;16.30;99.90;;;;;;5081709;28;20232;-51
2022/10/21 10:53:37;;;;;;;12.70;9.10;;;16.20;99.90;;;;;;5081590;28;20280;-50
2022/10/21 10:56:18;;;;;;;9.17;8.40;;;16.20;99.90;;;;;;5083909;28;20197;-51
2022/10/21 10:58:53;;;;;;;8.60;7.70;;;16.20;99.90;;;;;;5081024;28;20666;-51
2022/10/21 11:01:30;;;;;;;12.03;8.10;;;16.20;99.90;;;;;;5081057;28;20245;-50
2022/10/21 11:04:04;;;;;;;10.40;9.27;;;16.10;99.90;;;;;;5078769;28;20213;-51
2022/10/21 11:06:40;;;;;;;13.73;9.77;;;16.00;99.90;;;;;;5075846;28;20620;-51
2022/10/21 11:09:08;;;;;;;10.90;9.60;;;16.00;99.90;;;;;;5079873;28;20670;-51
2022/10/21 11:11:38;;;;;;;15.23;8.93;;;16.00;99.90;;;;;;5079620;28;20220;-50
2022/10/21 11:14:12;;;;;;;14.13;9.67;;;16.10;99.90;;;;;;5080813;28;20213;-49
2022/10/21 11:16:58;;;;;;;11.97;9.13;;;16.10;99.90;;;;;;5082281;28;20250;-50
2022/10/21 11:19:35;;;;;;;13.07;10.07;;;16.10;99.90;;;;;;5083285;28;20246;-50
2022/10/21 11:22:11;;;;;;;9.60;8.63;;;16.10;99.90;;;;;;5081354;28;20212;-50
2022/10/21 11:24:55;;;;;;;12.57;9.63;;;16.10;99.90;;;;;;5081252;28;20576;-51
2022/10/21 11:27:47;;;;;;;14.77;10.37;;;16.10;99.90;;;;;;5082686;28;20220;-51
2022/10/21 11:30:18;;;;;;;11.70;10.50;;;16.10;99.90;;;;;;5078702;28;20216;-51
2022/10/21 11:33:02;;;;;;;12.77;10.77;;;16.10;99.90;;;;;;5082633;28;20220;-51
2022/10/21 11:35:48;;;;;;;18.67;11.30;;;16.20;99.90;;;;;;5081448;28;20203;-49
2022/10/21 11:38:43;;;;;;;14.90;12.53;;;16.20;99.90;;;;;;5080191;28;20193;-50
2022/10/21 11:41:25;;;;;;;13.73;11.93;;;16.20;99.90;;;;;;5062799;28;20197;-50
2022/10/21 11:44:02;;;;;;;14.27;10.13;;;16.10;99.90;;;;;;5080532;28;20629;-51
2022/10/21 11:46:43;;;;;;;11.80;9.07;;;16.10;99.90;;;;;;5081352;28;20580;-51
2022/10/21 11:49:31;;;;;;;9.80;8.80;;;16.10;99.90;;;;;;5082239;28;20207;-52
2022/10/21 11:52:07;;;;;;;9.43;8.40;;;16.20;99.90;;;;;;5085375;28;20625;-52
2022/10/21 11:55:00;;;;;;;9.57;7.33;;;16.20;99.90;;;;;;5080276;28;20200;-51
2022/10/21 11:57:36;;;;;;;8.27;7.53;;;16.30;99.90;;;;;;5080873;28;20205;-51
2022/10/21 12:00:10;;;;;;;10.17;8.00;;;16.40;99.90;;;;;;5080148;28;20614;-51
2022/10/21 12:02:42;;;;;;;7.73;6.87;;;16.50;99.90;;;;;;5079793;28;20705;-50
2022/10/21 12:05:19;;;;;;;12.60;8.37;;;16.60;99.90;;;;;;5080480;28;20211;-52
2022/10/21 12:08:00;;;;;;;8.13;6.90;;;16.70;99.90;;;;;;5080790;28;20551;-50
2022/10/21 12:10:33;;;;;;;13.37;7.97;;;16.70;99.90;;;;;;5082408;28;20228;-51
2022/10/21 12:13:04;;;;;;;11.47;9.73;;;16.70;99.90;;;;;;5081497;28;20213;-52
2022/10/21 12:15:37;;;;;;;9.80;8.60;;;16.80;99.90;;;;;;5083647;28;20204;-51
2022/10/21 12:18:06;;;;;;;11.43;9.70;;;16.70;99.90;;;;;;5079384;28;20209;-50
2022/10/21 12:20:33;;;;;;;8.40;7.67;;;16.70;99.90;;;;;;5081754;28;20193;-52
2022/10/21 12:23:04;;;;;;;14.10;8.13;;;16.70;99.90;;;;;;5082866;28;20304;-51
2022/10/21 12:25:41;;;;;;;9.03;7.10;;;16.70;99.90;;;;;;5081633;28;20197;-51
2022/10/21 12:28:16;;;;;;;10.20;7.60;;;16.80;99.90;;;;;;5079813;28;20200;-53
2022/10/21 12:30:52;;;;;;;9.57;6.30;;;16.90;99.90;;;;;;5080741;28;20216;-51
2022/10/21 12:33:36;;;;;;;12.10;6.33;;;16.90;99.90;;;;;;5078711;28;20225;-52
2022/10/21 12:36:20;;;;;;;6.80;5.70;;;16.90;99.90;;;;;;5079321;28;20249;-50
2022/10/21 12:38:51;;;;;;;6.53;5.93;;;16.90;99.90;;;;;;5081649;28;20642;-51
2022/10/21 12:41:37;;;;;;;12.00;6.80;;;16.90;99.90;;;;;;5078240;28;20192;-51
2022/10/21 12:44:19;;;;;;;7.17;6.47;;;16.90;99.90;;;;;;5082823;28;20273;-50
2022/10/21 12:46:50;;;;;;;6.63;5.97;;;17.00;99.90;;;;;;5079468;28;22004;-51